Time;durP1;ratioP1;P1;durP2;ratioP2;P2;SDS_P1;SDS_P2;PMS_P1;PMS_P2;Temp;Humidity;BMP_temperature;BMP_pressure;BME280_temperature;BME280_humidity;BME280_pressure;Samples;Min_cycle;Max_cycle;Signal;HPM_P1;HPM_P2
2021/09/01 00:01:40;;;;;;;1.23;0.70;;;;;;;15.19;100.00;98285.72;5016347;28;20033;-85
2021/09/01 00:04:06;;;;;;;1.25;0.95;;;;;;;15.27;100.00;98271.97;5034114;28;20063;-87
2021/09/01 00:06:31;;;;;;;0.88;0.63;;;;;;;15.28;100.00;98281.06;5034002;28;20037;-86
2021/09/01 00:08:57;;;;;;;1.90;0.85;;;;;;;14.98;100.00;98285.44;5033808;28;20108;-88
2021/09/01 00:11:23;;;;;;;3.42;0.98;;;;;;;14.85;100.00;98289.09;5016642;28;20028;-87
2021/09/01 00:13:49;;;;;;;4.57;1.50;;;;;;;14.85;100.00;98300.09;5033514;28;20018;-85
2021/09/01 00:16:27;;;;;;;2.85;1.38;;;;;;;14.74;100.00;98291.31;5016064;28;20071;-85
2021/09/01 00:18:54;;;;;;;1.80;0.93;;;;;;;14.67;100.00;98301.13;5016208;28;20025;-85
2021/09/01 00:21:19;;;;;;;2.78;1.27;;;;;;;14.62;100.00;98309.50;5033477;28;20072;-86
2021/09/01 00:23:44;;;;;;;1.50;1.15;;;;;;;14.79;100.00;98310.44;5033643;28;20112;-88
2021/09/01 00:26:10;;;;;;;1.88;0.95;;;;;;;14.58;100.00;98309.31;5033843;28;20351;-85
2021/09/01 00:28:35;;;;;;;3.00;1.65;;;;;;;14.51;100.00;98306.19;5032992;28;20026;-86
2021/09/01 00:31:01;;;;;;;2.53;1.23;;;;;;;14.60;100.00;98307.06;5032982;28;20075;-88
2021/09/01 00:33:26;;;;;;;5.00;1.23;;;;;;;14.61;100.00;98305.94;5033412;28;20026;-87
2021/09/01 00:35:52;;;;;;;2.53;0.95;;;;;;;14.66;100.00;98314.06;5033493;28;20035;-86
2021/09/01 00:38:17;;;;;;;1.77;1.35;;;;;;;14.56;100.00;98314.34;5032949;28;20049;-87
2021/09/01 00:40:42;;;;;;;1.25;1.15;;;;;;;14.44;100.00;98314.06;5034430;28;20048;-88
2021/09/01 00:43:08;;;;;;;1.58;0.95;;;;;;;14.52;100.00;98302.31;5037022;28;20029;-86
2021/09/01 00:45:33;;;;;;;1.10;0.80;;;;;;;14.33;100.00;98288.72;5037161;28;20028;-85
2021/09/01 00:47:59;;;;;;;3.30;0.60;;;;;;;14.43;100.00;98298.69;5037148;28;20094;-88
2021/09/01 00:50:25;;;;;;;1.00;0.73;;;;;;;14.47;100.00;98316.22;5037460;28;20075;-86
2021/09/01 00:52:51;;;;;;;1.15;0.90;;;;;;;14.54;100.00;98315.75;5053114;28;20108;-88
2021/09/01 00:55:20;;;;;;;1.83;0.65;;;;;;;14.54;100.00;98313.81;5036194;28;20075;-88
2021/09/01 00:57:46;;;;;;;1.85;1.10;;;;;;;14.48;100.00;98320.56;5036984;28;20488;-85
2021/09/01 01:00:20;;;;;;;1.00;0.90;;;;;;;14.49;100.00;98311.19;5036891;28;20037;-86
2021/09/01 01:02:45;;;;;;;1.13;0.70;;;;;;;14.42;100.00;98310.81;5038122;28;20486;-86
2021/09/01 01:05:11;;;;;;;0.80;0.70;;;;;;;14.28;100.00;98310.03;5036616;28;20061;-87
2021/09/01 01:07:36;;;;;;;2.20;1.02;;;;;;;14.19;100.00;98317.38;5037152;28;20083;-86
2021/09/01 01:10:02;;;;;;;1.80;0.85;;;;;;;14.22;100.00;98312.06;5037717;28;20030;-86
2021/09/01 01:12:28;;;;;;;1.23;0.93;;;;;;;14.37;100.00;98313.69;5038574;28;20075;-86
2021/09/01 01:14:53;;;;;;;2.33;1.30;;;;;;;14.34;100.00;98314.31;5036563;28;20398;-88
2021/09/01 01:17:20;;;;;;;2.30;0.85;;;;;;;14.38;100.00;98307.03;5041604;28;20060;-87
2021/09/01 01:19:48;;;;;;;3.13;1.20;;;;;;;14.41;100.00;98314.69;5040122;28;20026;-86
2021/09/01 01:22:20;;;;;;;2.15;1.13;;;;;;;14.03;100.00;98322.41;5037638;28;20152;-87
2021/09/01 01:25:27;;;;;;;5.07;1.48;;;;;;;13.88;100.00;98322.72;5038811;28;20030;-88
2021/09/01 01:27:52;;;;;;;1.48;1.20;;;;;;;13.79;100.00;98325.38;5021403;28;20037;-87
2021/09/01 01:30:20;;;;;;;1.75;1.40;;;;;;;13.93;100.00;98312.44;5037779;28;20061;-89
2021/09/01 01:32:49;;;;;;;4.70;1.52;;;;;;;13.89;100.00;98316.94;5037080;28;20030;-87
2021/09/01 01:35:31;;;;;;;1.63;1.00;;;;;;;14.09;100.00;98328.63;5043387;28;20025;-87
2021/09/01 01:37:58;;;;;;;1.40;1.05;;;;;;;13.94;100.00;98316.00;5039351;28;20041;-86
2021/09/01 01:40:24;;;;;;;1.88;1.33;;;;;;;13.80;100.00;98312.47;5037833;28;20030;-87
2021/09/01 01:42:56;;;;;;;1.58;1.38;;;;;;;13.76;100.00;98315.00;5036653;28;20072;-88
2021/09/01 01:45:24;;;;;;;2.42;1.30;;;;;;;13.67;100.00;98314.09;5037255;28;20022;-87
2021/09/01 01:47:50;;;;;;;2.80;1.00;;;;;;;13.73;100.00;98323.88;5036833;28;20568;-86
2021/09/01 01:50:16;;;;;;;2.83;1.52;;;;;;;13.57;100.00;98311.56;5034295;28;20031;-87
2021/09/01 01:52:41;;;;;;;1.85;1.05;;;;;;;13.55;100.00;98318.47;5034753;28;20100;-85
2021/09/01 01:55:09;;;;;;;5.57;1.50;;;;;;;13.50;100.00;98311.13;5035842;28;20067;-88
2021/09/01 01:57:36;;;;;;;1.45;1.27;;;;;;;13.53;100.00;98315.22;5035873;28;20049;-86
2021/09/01 02:00:04;;;;;;;4.95;1.58;;;;;;;13.64;100.00;98324.88;5037219;28;20045;-86
2021/09/01 02:02:30;;;;;;;4.57;1.42;;;;;;;13.70;100.00;98316.22;5035926;28;20040;-87
2021/09/01 02:04:59;;;;;;;1.90;1.10;;;;;;;13.65;100.00;98319.09;5049438;28;20077;-88
2021/09/01 02:07:28;;;;;;;2.92;1.45;;;;;;;13.66;100.00;98320.72;5050015;28;20045;-88
2021/09/01 02:09:53;;;;;;;1.98;1.63;;;;;;;13.75;100.00;98321.63;5053082;28;20024;-86
2021/09/01 02:12:19;;;;;;;1.33;1.17;;;;;;;13.44;100.00;98331.59;5057534;28;20025;-86
2021/09/01 02:14:45;;;;;;;2.55;1.20;;;;;;;13.31;100.00;98324.97;5057001;28;20061;-87
2021/09/01 02:17:10;;;;;;;2.42;1.40;;;;;;;13.42;100.00;98320.09;5058522;28;20029;-83
2021/09/01 02:19:36;;;;;;;2.60;1.33;;;;;;;13.67;100.00;98333.34;5058737;28;20016;-78
2021/09/01 02:22:02;;;;;;;3.22;1.10;;;;;;;13.61;100.00;98325.50;5058976;28;20048;-84
2021/09/01 02:24:27;;;;;;;2.05;1.35;;;;;;;13.47;100.00;98328.25;5057053;28;20034;-88
2021/09/01 02:26:53;;;;;;;1.52;1.10;;;;;;;13.27;100.00;98326.72;5054862;28;20076;-86
2021/09/01 02:29:18;;;;;;;3.65;1.13;;;;;;;13.22;100.00;98321.28;5054736;28;20470;-87
2021/09/01 02:31:47;;;;;;;1.75;1.23;;;;;;;13.20;100.00;98319.97;5056021;28;20028;-89
2021/09/01 02:34:12;;;;;;;1.42;0.93;;;;;;;13.26;100.00;98324.25;5053856;28;20108;-88
2021/09/01 02:36:38;;;;;;;2.13;1.10;;;;;;;13.29;100.00;98318.97;5051662;28;20056;-89
2021/09/01 02:39:04;;;;;;;4.93;0.82;;;;;;;13.15;100.00;98317.34;5048098;28;20041;-86
2021/09/01 02:41:30;;;;;;;1.48;1.08;;;;;;;13.20;100.00;98309.81;5046553;28;20037;-87
2021/09/01 02:43:55;;;;;;;1.20;0.85;;;;;;;13.11;100.00;98311.63;5053773;28;20049;-87
2021/09/01 02:46:21;;;;;;;2.00;1.17;;;;;;;13.06;100.00;98306.19;5050892;28;20013;-87
2021/09/01 02:48:46;;;;;;;1.40;1.02;;;;;;;13.13;100.00;98309.38;5051500;28;20048;-88
2021/09/01 02:51:12;;;;;;;2.13;1.25;;;;;;;13.16;100.00;98316.19;5054572;28;20117;-87
2021/09/01 02:53:37;;;;;;;1.75;1.00;;;;;;;13.18;100.00;98330.47;5054762;28;20108;-87
2021/09/01 02:56:03;;;;;;;1.50;0.60;;;;;;;13.14;100.00;98326.69;5056221;28;20032;-87
2021/09/01 02:58:29;;;;;;;1.85;0.80;;;;;;;12.85;100.00;98316.72;5055278;28;20022;-88
2021/09/01 03:00:54;;;;;;;2.42;1.13;;;;;;;12.92;100.00;98332.00;5053847;28;20039;-86
2021/09/01 03:03:19;;;;;;;1.98;1.02;;;;;;;12.96;100.00;98328.34;5053067;28;20041;-87
2021/09/01 03:05:45;;;;;;;1.90;1.08;;;;;;;13.02;100.00;98331.81;5051908;28;20017;-88
2021/09/01 03:08:11;;;;;;;9.93;3.17;;;;;;;12.96;100.00;98322.88;5051763;28;20096;-86
2021/09/01 03:10:37;;;;;;;4.80;1.60;;;;;;;12.91;100.00;98320.19;5051746;28;20117;-88
2021/09/01 03:13:03;;;;;;;1.55;1.10;;;;;;;12.87;100.00;98325.47;5050528;28;20017;-87
2021/09/01 03:15:28;;;;;;;3.25;1.10;;;;;;;12.73;100.00;98324.63;5051715;28;20027;-85
2021/09/01 03:17:54;;;;;;;2.08;1.20;;;;;;;12.63;100.00;98327.53;5049454;28;20068;-85
2021/09/01 03:20:19;;;;;;;0.98;0.80;;;;;;;12.80;100.00;98321.50;5050020;28;20026;-85
2021/09/01 03:22:45;;;;;;;2.90;0.90;;;;;;;12.76;100.00;98329.50;5044824;28;20029;-88
2021/09/01 03:25:11;;;;;;;1.08;0.88;;;;;;;12.70;100.00;98319.75;5048125;28;20029;-88
2021/09/01 03:27:37;;;;;;;1.33;0.93;;;;;;;12.67;100.00;98325.81;5053281;28;20010;-85
2021/09/01 03:30:03;;;;;;;5.40;1.13;;;;;;;12.69;100.00;98323.59;5056417;28;20013;-84
2021/09/01 03:32:28;;;;;;;2.53;1.30;;;;;;;12.69;100.00;98318.09;5056695;28;20010;-82
2021/09/01 03:34:54;;;;;;;1.40;1.02;;;;;;;12.76;100.00;98317.72;5056060;28;20097;-85
2021/09/01 03:37:20;;;;;;;1.00;0.75;;;;;;;12.64;100.00;98331.09;5055813;28;20044;-88
2021/09/01 03:39:45;;;;;;;4.20;0.93;;;;;;;12.55;100.00;98322.72;5056719;28;20040;-88
2021/09/01 03:42:10;;;;;;;2.22;1.30;;;;;;;12.53;100.00;98333.19;5053477;28;20045;-87
2021/09/01 03:44:36;;;;;;;1.45;1.00;;;;;;;12.52;100.00;98326.06;5054745;28;20030;-87
2021/09/01 03:47:01;;;;;;;5.03;1.02;;;;;;;12.71;100.00;98337.03;5055285;28;20024;-88
2021/09/01 03:49:27;;;;;;;1.73;1.25;;;;;;;12.66;100.00;98339.84;5057080;28;20017;-84
2021/09/01 03:51:52;;;;;;;1.50;1.15;;;;;;;12.58;100.00;98337.78;5057494;28;20018;-81
2021/09/01 03:54:18;;;;;;;1.90;0.93;;;;;;;12.67;100.00;98345.03;5056876;28;20064;-83
2021/09/01 03:56:43;;;;;;;1.23;0.95;;;;;;;12.74;100.00;98356.47;5054226;28;20041;-88
2021/09/01 03:59:08;;;;;;;3.20;1.25;;;;;;;12.87;100.00;98352.91;5054211;28;20089;-87
2021/09/01 04:01:35;;;;;;;3.67;0.88;;;;;;;12.78;100.00;98349.22;5054886;28;20056;-85
2021/09/01 04:04:01;;;;;;;2.45;1.02;;;;;;;12.81;100.00;98354.13;5053145;28;20030;-87
2021/09/01 04:06:27;;;;;;;1.83;0.98;;;;;;;13.02;100.00;98353.78;5051526;28;20029;-88
2021/09/01 04:09:01;;;;;;;1.60;1.20;;;;;;;13.04;100.00;98357.03;5052151;28;20105;-87
2021/09/01 04:11:31;;;;;;;2.25;1.23;;;;;;;13.22;100.00;98369.94;5037756;28;20025;-89
2021/09/01 04:13:59;;;;;;;2.95;1.20;;;;;;;13.13;100.00;98367.06;5036843;28;20059;-87
2021/09/01 04:16:27;;;;;;;2.33;1.15;;;;;;;13.10;100.00;98356.69;5039028;28;20037;-88
2021/09/01 04:19:13;;;;;;;1.88;1.35;;;;;;;13.09;100.00;98354.25;5024402;28;20029;-87
2021/09/01 04:22:04;;;;;;;2.20;1.40;;;;;;;13.29;100.00;98359.38;5040281;28;20386;-88
2021/09/01 04:24:51;;;;;;;2.60;1.20;;;;;;;13.13;100.00;98363.50;5057631;28;20063;-87
2021/09/01 04:27:17;;;;;;;1.75;1.50;;;;;;;13.05;100.00;98366.91;5053456;28;20578;-88
2021/09/01 04:29:44;;;;;;;2.08;1.00;;;;;;;13.25;100.00;98370.13;5036715;28;20060;-87
2021/09/01 04:32:10;;;;;;;6.70;2.05;;;;;;;13.33;100.00;98365.91;5051131;28;20022;-89
2021/09/01 04:34:36;;;;;;;2.95;1.70;;;;;;;13.23;100.00;98368.81;5035551;28;20036;-87
2021/09/01 04:37:01;;;;;;;2.55;1.45;;;;;;;13.28;100.00;98368.75;5033077;28;20056;-87
2021/09/01 04:39:28;;;;;;;4.65;1.90;;;;;;;13.40;100.00;98369.88;5052217;28;20013;-88
2021/09/01 04:41:54;;;;;;;2.65;1.75;;;;;;;13.32;100.00;98369.75;5047592;28;20041;-87
2021/09/01 04:44:20;;;;;;;3.20;1.55;;;;;;;13.36;100.00;98379.03;5033608;28;20021;-86
2021/09/01 04:46:46;;;;;;;2.28;1.70;;;;;;;13.60;100.00;98387.91;5034808;28;20044;-88
2021/09/01 04:49:12;;;;;;;4.70;2.67;;;;;;;13.65;100.00;98384.25;5034537;28;20036;-87
2021/09/01 04:51:40;;;;;;;4.72;2.83;;;;;;;13.69;100.00;98388.81;5030960;28;20041;-87
2021/09/01 04:54:06;;;;;;;6.45;3.30;;;;;;;13.67;100.00;98393.81;5015894;28;20033;-88
2021/09/01 04:56:31;;;;;;;8.50;3.00;;;;;;;13.62;100.00;98396.69;5033465;28;20132;-87
2021/09/01 04:58:58;;;;;;;6.50;2.50;;;;;;;13.76;100.00;98394.75;5048919;28;20375;-88
2021/09/01 05:01:25;;;;;;;5.38;2.40;;;;;;;13.82;100.00;98395.44;5054163;28;20020;-87
2021/09/01 05:04:06;;;;;;;3.72;2.60;;;;;;;13.83;100.00;98381.41;5034044;28;20030;-87
2021/09/01 05:06:33;;;;;;;7.97;2.88;;;;;;;13.89;100.00;98398.63;5038169;28;20009;-87
2021/09/01 05:08:58;;;;;;;3.65;1.25;;;;;;;13.71;100.00;98392.09;5009817;28;20042;-87
2021/09/01 05:11:24;;;;;;;1.95;1.35;;;;;;;13.74;100.00;98398.91;5018569;28;20036;-83
2021/09/01 05:13:50;;;;;;;5.03;1.98;;;;;;;13.82;100.00;98404.53;5016925;28;20136;-82
2021/09/01 05:16:15;;;;;;;5.50;1.77;;;;;;;13.86;100.00;98402.78;5033417;28;20053;-82
2021/09/01 05:18:41;;;;;;;8.23;2.70;;;;;;;13.62;100.00;98402.19;5021548;28;20032;-81
2021/09/01 05:21:12;;;;;;;6.88;3.60;;;;;;;13.44;100.00;98403.03;5034077;28;20030;-81
2021/09/01 05:23:40;;;;;;;5.63;3.40;;;;;;;13.42;100.00;98402.53;5033715;28;20029;-87
2021/09/01 05:26:06;;;;;;;5.68;3.42;;;;;;;13.53;100.00;98392.19;5029563;28;20022;-87
2021/09/01 05:28:35;;;;;;;9.38;3.85;;;;;;;13.62;100.00;98402.19;5042937;28;20030;-86
2021/09/01 05:31:07;;;;;;;12.68;5.53;;;;;;;13.54;100.00;98402.03;5015819;28;20474;-84
2021/09/01 05:33:35;;;;;;;6.30;3.28;;;;;;;13.59;100.00;98408.28;5016011;28;20494;-84
2021/09/01 05:36:00;;;;;;;6.80;3.15;;;;;;;13.73;100.00;98409.09;5034460;28;20171;-84
2021/09/01 05:38:26;;;;;;;6.65;3.92;;;;;;;13.71;100.00;98389.34;5036645;28;20079;-83
2021/09/01 05:40:53;;;;;;;9.15;5.10;;;;;;;13.85;100.00;98406.66;5032902;28;20041;-83
2021/09/01 05:43:20;;;;;;;7.13;3.92;;;;;;;13.69;100.00;98408.06;5032033;28;20025;-81
2021/09/01 05:45:48;;;;;;;10.18;4.03;;;;;;;13.66;100.00;98413.34;5037876;28;20033;-83
2021/09/01 05:48:14;;;;;;;7.00;4.00;;;;;;;13.58;100.00;98412.16;5042639;28;20502;-86
2021/09/01 05:50:44;;;;;;;7.82;5.18;;;;;;;13.55;100.00;98412.75;5052449;28;20032;-82
2021/09/01 05:53:10;;;;;;;9.18;5.22;;;;;;;13.55;100.00;98407.25;5057393;28;20393;-87
2021/09/01 05:55:41;;;;;;;11.80;5.55;;;;;;;13.72;100.00;98418.47;5033192;28;20022;-88
2021/09/01 05:58:12;;;;;;;12.82;5.72;;;;;;;13.75;100.00;98417.84;5037578;28;20055;-83
2021/09/01 06:00:40;;;;;;;11.68;5.10;;;;;;;13.82;100.00;98414.69;5035349;28;20029;-84
2021/09/01 06:03:41;;;;;;;11.68;5.78;;;;;;;13.70;100.00;98419.88;5035227;28;20025;-86
2021/09/01 06:06:12;;;;;;;13.32;6.20;;;;;;;13.59;100.00;98408.28;5035469;28;20432;-84
2021/09/01 06:08:37;;;;;;;14.90;6.90;;;;;;;13.60;100.00;98404.41;5037917;28;20464;-87
2021/09/01 06:11:05;;;;;;;12.75;7.10;;;;;;;13.91;100.00;98405.44;5055452;28;20057;-87
2021/09/01 06:13:31;;;;;;;15.98;7.40;;;;;;;13.98;100.00;98412.47;5055068;28;20036;-86
2021/09/01 06:15:56;;;;;;;17.40;8.63;;;;;;;13.83;100.00;98408.91;5054350;28;20025;-86
2021/09/01 06:18:23;;;;;;;19.70;8.38;;;;;;;13.99;100.00;98414.09;5036834;28;20052;-86
2021/09/01 06:20:48;;;;;;;23.92;11.00;;;;;;;14.06;100.00;98412.59;5054154;28;20147;-85
2021/09/01 06:23:14;;;;;;;21.08;10.60;;;;;;;14.14;100.00;98408.28;5035195;28;20021;-86
2021/09/01 06:25:40;;;;;;;15.77;9.80;;;;;;;14.10;100.00;98410.81;5033306;28;20029;-86
2021/09/01 06:28:08;;;;;;;22.42;9.23;;;;;;;14.30;100.00;98413.16;5033235;28;20059;-86
2021/09/01 06:30:35;;;;;;;17.27;8.15;;;;;;;14.37;100.00;98407.28;5019303;28;20092;-84
2021/09/01 06:33:04;;;;;;;16.98;7.68;;;;;;;14.53;100.00;98414.06;5001597;28;20033;-86
2021/09/01 06:35:29;;;;;;;15.52;7.53;;;;;;;14.48;100.00;98411.41;5016229;28;20044;-87
2021/09/01 06:37:55;;;;;;;12.52;8.45;;;;;;;14.38;100.00;98420.72;5033666;28;20049;-83
2021/09/01 06:40:21;;;;;;;12.73;7.85;;;;;;;14.27;100.00;98423.97;5033646;28;20473;-81
2021/09/01 06:42:47;;;;;;;14.63;8.63;;;;;;;14.24;100.00;98424.56;5033739;28;20067;-81
2021/09/01 06:45:13;;;;;;;13.48;8.57;;;;;;;14.34;100.00;98421.66;5020696;28;20025;-84
2021/09/01 06:47:39;;;;;;;14.77;8.52;;;;;;;14.38;100.00;98426.22;5046188;28;20026;-83
2021/09/01 06:50:05;;;;;;;14.70;8.23;;;;;;;14.26;100.00;98425.06;5014815;28;20033;-81
2021/09/01 06:52:31;;;;;;;17.40;9.40;;;;;;;14.18;100.00;98423.06;5034617;28;20048;-82
2021/09/01 06:54:56;;;;;;;15.57;8.82;;;;;;;14.26;100.00;98439.66;5032064;28;20049;-86
2021/09/01 06:57:22;;;;;;;13.27;8.15;;;;;;;14.46;100.00;98450.28;5032612;28;20025;-87
2021/09/01 06:59:47;;;;;;;13.60;9.85;;;;;;;14.59;100.00;98445.88;5032847;28;20482;-82
2021/09/01 07:02:13;;;;;;;12.32;8.50;;;;;;;14.43;100.00;98450.06;5032124;28;20520;-84
2021/09/01 07:04:38;;;;;;;19.05;9.15;;;;;;;14.16;100.00;98444.56;5032066;28;20029;-81
2021/09/01 07:07:03;;;;;;;12.63;9.43;;;;;;;14.04;100.00;98441.50;5032834;28;20033;-82
2021/09/01 07:09:29;;;;;;;12.82;9.20;;;;;;;14.12;100.00;98438.03;5032841;28;20029;-84
2021/09/01 07:11:54;;;;;;;12.35;9.05;;;;;;;14.25;100.00;98439.97;5014191;28;20075;-83
2021/09/01 07:14:19;;;;;;;17.13;10.23;;;;;;;14.08;100.00;98434.28;5014714;28;20029;-83
2021/09/01 07:16:45;;;;;;;13.43;9.73;;;;;;;14.22;100.00;98438.63;5031881;28;20036;-84
2021/09/01 07:19:10;;;;;;;12.90;8.80;;;;;;;14.27;100.00;98434.97;5031823;28;20026;-83
2021/09/01 07:21:36;;;;;;;16.90;9.23;;;;;;;14.32;100.00;98443.09;5031637;28;20033;-86
2021/09/01 07:24:01;;;;;;;15.45;8.65;;;;;;;14.30;100.00;98437.09;5031814;28;20444;-84
2021/09/01 07:26:27;;;;;;;11.38;8.43;;;;;;;14.30;100.00;98439.84;5013731;28;20018;-83
2021/09/01 07:28:52;;;;;;;16.60;9.80;;;;;;;14.29;100.00;98433.53;5031392;28;20873;-83
2021/09/01 07:31:19;;;;;;;15.35;9.60;;;;;;;14.40;100.00;98440.50;5031976;28;20030;-83
2021/09/01 07:33:44;;;;;;;10.55;8.27;;;;;;;14.52;100.00;98441.91;5031941;28;20029;-81
2021/09/01 07:36:10;;;;;;;13.57;8.25;;;;;;;14.79;100.00;98442.63;5032550;28;20099;-83
2021/09/01 07:38:35;;;;;;;15.05;9.32;;;;;;;15.05;100.00;98459.41;5032936;28;20080;-84
2021/09/01 07:41:01;;;;;;;11.30;8.65;;;;;;;15.49;100.00;98456.66;5037951;28;20040;-81
2021/09/01 07:43:27;;;;;;;12.35;8.32;;;;;;;15.82;98.22;98465.44;5032744;28;20113;-81
2021/09/01 07:45:53;;;;;;;11.98;8.07;;;;;;;16.02;96.40;98466.84;5032172;28;20029;-81
2021/09/01 07:48:19;;;;;;;17.30;7.43;;;;;;;16.35;94.12;98473.63;5014013;28;20545;-81
2021/09/01 07:50:45;;;;;;;11.40;8.43;;;;;;;16.43;92.97;98469.28;5035257;28;20025;-83
2021/09/01 07:53:12;;;;;;;12.05;8.05;;;;;;;17.24;89.55;98472.31;5037079;28;20433;-82
2021/09/01 07:55:37;;;;;;;11.93;7.97;;;;;;;17.89;83.42;98472.88;5041106;28;20463;-82
2021/09/01 07:58:03;;;;;;;9.48;6.65;;;;;;;18.56;79.95;98474.91;5044998;28;20028;-81
2021/09/01 08:00:29;;;;;;;10.48;6.93;;;;;;;19.45;74.60;98479.19;5018012;28;20112;-81
2021/09/01 08:02:54;;;;;;;8.27;6.85;;;;;;;20.46;69.92;98491.47;5019496;28;20033;-80
2021/09/01 08:05:21;;;;;;;8.02;5.32;;;;;;;20.32;69.50;98480.72;5037889;28;20347;-79
2021/09/01 08:07:48;;;;;;;14.02;6.35;;;;;;;20.43;68.34;98492.19;5018408;28;20053;-79
2021/09/01 08:10:14;;;;;;;10.38;7.30;;;;;;;20.15;70.62;98490.03;5035612;28;20030;-79
2021/09/01 08:12:40;;;;;;;10.05;6.65;;;;;;;20.09;69.53;98488.63;5019008;28;20029;-79
2021/09/01 08:15:07;;;;;;;9.65;6.35;;;;;;;19.64;70.45;98493.38;5036055;28;20117;-80
2021/09/01 08:17:32;;;;;;;9.55;5.22;;;;;;;20.37;70.04;98488.00;5035183;28;20033;-79
2021/09/01 08:19:58;;;;;;;7.50;5.53;;;;;;;21.53;63.19;98490.88;5038224;28;20032;-78
2021/09/01 08:22:23;;;;;;;8.05;5.47;;;;;;;22.02;61.08;98491.50;5036265;28;20060;-78
2021/09/01 08:24:49;;;;;;;10.95;5.97;;;;;;;21.91;62.16;98485.63;5035324;28;20424;-79
2021/09/01 08:27:14;;;;;;;10.23;5.15;;;;;;;21.95;61.73;98482.94;5035313;28;20033;-77
2021/09/01 08:29:40;;;;;;;5.28;4.60;;;;;;;21.62;61.68;98483.19;5016848;28;20064;-78
2021/09/01 08:32:08;;;;;;;6.28;4.88;;;;;;;22.36;59.45;98474.91;5017269;28;20072;-79
2021/09/01 08:34:33;;;;;;;9.07;5.18;;;;;;;22.01;60.26;98468.38;5034910;28;20033;-78
2021/09/01 08:37:03;;;;;;;8.50;4.68;;;;;;;23.36;56.17;98476.06;5034265;28;20421;-77
2021/09/01 08:39:29;;;;;;;8.68;4.88;;;;;;;23.11;56.79;98483.09;5035092;28;20112;-78
2021/09/01 08:41:54;;;;;;;11.40;5.60;;;;;;;24.08;54.18;98483.91;5034493;28;20087;-78
2021/09/01 08:44:20;;;;;;;9.80;4.93;;;;;;;23.15;55.59;98470.00;5034290;28;20040;-78
2021/09/01 08:46:50;;;;;;;8.40;4.82;;;;;;;25.13;50.80;98476.50;5016757;28;20060;-77
2021/09/01 08:49:18;;;;;;;6.90;4.53;;;;;;;24.15;53.00;98465.28;5034609;28;20068;-79
2021/09/01 08:51:45;;;;;;;7.70;5.20;;;;;;;24.33;51.87;98474.81;5034266;28;20021;-77
2021/09/01 08:54:11;;;;;;;5.70;4.60;;;;;;;25.12;49.31;98476.88;5034574;28;20030;-78
2021/09/01 08:56:37;;;;;;;12.73;5.47;;;;;;;24.28;51.94;98475.09;5016532;28;20032;-77
2021/09/01 08:59:02;;;;;;;11.98;5.80;;;;;;;23.48;54.61;98474.31;5033813;28;20018;-77
2021/09/01 09:01:49;;;;;;;9.65;7.43;;;;;;;25.37;48.68;98490.03;5016509;28;20045;-77
2021/09/01 09:04:17;;;;;;;10.30;7.03;;;;;;;24.69;50.06;98480.97;5035884;28;20029;-80
2021/09/01 09:06:54;;;;;;;10.90;7.43;;;;;;;26.90;44.49;98478.47;5048487;28;20026;-78
2021/09/01 09:09:25;;;;;;;8.90;7.28;;;;;;;25.83;47.28;98475.81;5038230;28;20103;-79
2021/09/01 09:11:52;;;;;;;7.43;6.05;;;;;;;24.36;49.48;98465.66;5039224;28;20025;-77
2021/09/01 09:14:21;;;;;;;7.75;6.93;;;;;;;24.17;50.65;98462.94;5033880;28;20025;-77
2021/09/01 09:16:58;;;;;;;10.65;7.30;;;;;;;25.31;49.55;98463.53;5030922;28;20033;-77
2021/09/01 09:19:44;;;;;;;10.73;6.40;;;;;;;24.50;49.17;98465.88;5015830;28;20030;-78
2021/09/01 09:22:11;;;;;;;6.28;5.68;;;;;;;26.89;44.38;98462.81;5015898;28;20093;-77
2021/09/01 09:24:37;;;;;;;9.52;5.38;;;;;;;25.01;46.98;98457.94;5033757;28;20033;-77
2021/09/01 09:27:07;;;;;;;10.13;5.38;;;;;;;24.66;47.15;98462.94;5033209;28;20034;-77
2021/09/01 09:29:33;;;;;;;6.88;4.35;;;;;;;25.13;45.57;98462.47;5033904;28;20037;-77
2021/09/01 09:32:07;;;;;;;6.75;4.50;;;;;;;25.27;45.28;98467.47;5033774;28;20029;-80
2021/09/01 09:34:42;;;;;;;4.35;3.75;;;;;;;27.17;40.66;98465.81;5033495;28;20389;-79
2021/09/01 09:37:13;;;;;;;7.15;4.57;;;;;;;27.49;39.77;98472.44;5032830;28;20041;-78
2021/09/01 09:39:47;;;;;;;10.48;3.92;;;;;;;27.58;39.45;98464.44;5015528;28;20238;-78
2021/09/01 09:42:37;;;;;;;4.07;3.30;;;;;;;27.73;39.59;98468.09;5033079;28;20041;-79
2021/09/01 09:45:26;;;;;;;4.78;2.13;;;;;;;27.88;37.15;98458.50;5015197;28;20071;-80
2021/09/01 09:47:53;;;;;;;4.32;2.63;;;;;;;27.30;38.90;98463.47;5032857;28;20496;-79
2021/09/01 09:50:21;;;;;;;3.58;2.40;;;;;;;27.03;39.72;98460.13;5014881;28;20029;-78
2021/09/01 09:52:46;;;;;;;3.95;2.40;;;;;;;26.58;40.96;98456.56;5032576;28;20025;-77
2021/09/01 09:55:13;;;;;;;3.25;2.55;;;;;;;27.47;40.09;98455.16;5033110;28;20044;-77
2021/09/01 09:57:49;;;;;;;7.60;2.30;;;;;;;26.81;40.27;98445.13;5033499;28;20025;-78
2021/09/01 10:00:16;;;;;;;3.67;1.98;;;;;;;26.32;41.46;98458.72;5033475;28;20078;-76
2021/09/01 10:02:43;;;;;;;5.43;1.95;;;;;;;27.11;39.80;98456.13;5036487;28;20033;-78
2021/09/01 10:05:13;;;;;;;3.25;1.95;;;;;;;27.09;40.31;98455.75;5033171;28;20022;-78
2021/09/01 10:07:38;;;;;;;2.88;1.92;;;;;;;27.45;38.93;98457.56;5030959;28;20044;-77
2021/09/01 10:10:04;;;;;;;1.77;1.30;;;;;;;27.79;37.56;98463.72;5034001;28;20405;-78
2021/09/01 10:12:30;;;;;;;3.72;2.60;;;;;;;27.80;37.34;98465.31;5032640;28;20038;-79
2021/09/01 10:14:59;;;;;;;2.20;1.65;;;;;;;28.15;37.79;98459.81;5031906;28;20477;-76
2021/09/01 10:17:27;;;;;;;2.40;1.20;;;;;;;28.03;36.43;98462.19;5033293;28;20029;-76
2021/09/01 10:19:54;;;;;;;3.58;1.25;;;;;;;28.21;36.76;98463.03;5020015;28;20037;-78
2021/09/01 10:22:20;;;;;;;2.08;1.23;;;;;;;29.25;34.03;98465.47;5036617;28;20040;-77
2021/09/01 10:24:49;;;;;;;1.98;1.25;;;;;;;29.63;33.33;98458.88;5033174;28;20025;-77
2021/09/01 10:27:22;;;;;;;1.30;1.20;;;;;;;29.09;33.78;98462.25;5028415;28;20402;-78
2021/09/01 10:29:56;;;;;;;1.35;0.95;;;;;;;29.92;32.87;98451.09;5020297;28;20421;-78
2021/09/01 10:32:41;;;;;;;2.80;1.67;;;;;;;28.48;34.41;98455.00;5022027;28;20033;-78
2021/09/01 10:35:12;;;;;;;4.10;1.13;;;;;;;30.38;30.99;98462.13;5024528;28;20505;-77
2021/09/01 10:37:51;;;;;;;1.75;1.15;;;;;;;30.49;30.52;98457.22;5031724;28;20103;-78
2021/09/01 10:40:25;;;;;;;1.48;1.10;;;;;;;29.24;32.17;98458.22;5014375;28;20576;-77
2021/09/01 10:42:55;;;;;;;5.87;1.27;;;;;;;29.37;31.69;98461.41;5031823;28;20049;-78
2021/09/01 10:45:43;;;;;;;4.30;1.40;;;;;;;29.17;32.01;98447.72;5013869;28;20470;-76
2021/09/01 10:48:09;;;;;;;3.00;1.65;;;;;;;28.98;32.75;98444.53;5031275;28;20033;-77
2021/09/01 10:50:37;;;;;;;2.15;1.17;;;;;;;30.18;30.86;98444.09;5031982;28;20021;-79
2021/09/01 10:53:20;;;;;;;2.83;1.10;;;;;;;29.24;30.03;98438.47;5032182;28;20064;-77
2021/09/01 10:55:56;;;;;;;1.20;0.93;;;;;;;30.55;27.93;98447.06;5032133;28;20041;-78
2021/09/01 10:58:44;;;;;;;5.47;1.35;;;;;;;29.46;29.91;98442.84;5031776;28;20049;-75
2021/09/01 11:01:16;;;;;;;1.48;1.23;;;;;;;27.77;31.47;98442.81;5031616;28;20144;-77
2021/09/01 11:03:48;;;;;;;4.93;1.38;;;;;;;26.58;34.18;98439.72;5014102;28;20029;-77
2021/09/01 11:06:17;;;;;;;1.80;1.40;;;;;;;25.67;33.54;98416.34;5014805;28;20025;-77
2021/09/01 11:08:59;;;;;;;1.27;0.68;;;;;;;25.01;32.31;98429.94;5031908;28;20132;-78
2021/09/01 11:11:48;;;;;;;2.85;1.23;;;;;;;24.98;33.44;98430.69;5031904;28;20569;-78
2021/09/01 11:14:31;;;;;;;1.17;1.08;;;;;;;25.29;33.09;98434.28;5013962;28;20029;-77
2021/09/01 11:17:01;;;;;;;0.95;0.73;;;;;;;25.04;31.86;98433.97;5013837;28;20119;-77
2021/09/01 11:19:30;;;;;;;3.00;1.10;;;;;;;24.89;31.74;98430.16;5031423;28;20168;-79
2021/09/01 11:21:59;;;;;;;1.98;1.40;;;;;;;24.87;31.87;98435.31;5030910;28;20067;-78
2021/09/01 11:24:24;;;;;;;1.08;0.82;;;;;;;25.15;31.36;98432.13;5031539;28;20456;-77
2021/09/01 11:26:55;;;;;;;2.05;1.15;;;;;;;24.57;32.18;98428.00;5034665;28;20024;-78
2021/09/01 11:29:34;;;;;;;1.20;1.00;;;;;;;24.82;31.89;98426.44;5034155;28;20026;-79
2021/09/01 11:32:01;;;;;;;1.63;0.88;;;;;;;25.05;32.00;98418.78;5031391;28;20024;-77